sensor_id;sensor_type;location;lat;lon;timestamp;temperature;humidity
15394;DHT22;7795;47.986;11.868;2024-01-06T00:01:33;9.20;78.80
15394;DHT22;7795;47.986;11.868;2024-01-06T00:03:59;9.20;79.50
15394;DHT22;7795;47.986;11.868;2024-01-06T00:06:25;9.20;78.80
15394;DHT22;7795;47.986;11.868;2024-01-06T00:08:51;9.20;78.80
15394;DHT22;7795;47.986;11.868;2024-01-06T00:11:19;9.20;78.80
15394;DHT22;7795;47.986;11.868;2024-01-06T00:13:45;9.20;79.20
15394;DHT22;7795;47.986;11.868;2024-01-06T00:16:12;9.20;78.80
15394;DHT22;7795;47.986;11.868;2024-01-06T00:18:39;9.20;78.80
15394;DHT22;7795;47.986;11.868;2024-01-06T00:21:04;9.20;78.80
15394;DHT22;7795;47.986;11.868;2024-01-06T00:23:30;9.20;78.80
15394;DHT22;7795;47.986;11.868;2024-01-06T00:25:56;9.20;78.80
15394;DHT22;7795;47.986;11.868;2024-01-06T00:28:22;9.20;78.80
15394;DHT22;7795;47.986;11.868;2024-01-06T00:30:48;9.20;78.80
15394;DHT22;7795;47.986;11.868;2024-01-06T00:33:15;9.20;78.80
15394;DHT22;7795;47.986;11.868;2024-01-06T00:35:41;9.20;78.80
15394;DHT22;7795;47.986;11.868;2024-01-06T00:38:06;9.20;78.80
15394;DHT22;7795;47.986;11.868;2024-01-06T00:40:32;9.20;78.90
15394;DHT22;7795;47.986;11.868;2024-01-06T00:42:58;9.20;78.90
15394;DHT22;7795;47.986;11.868;2024-01-06T00:45:24;9.20;79.00
15394;DHT22;7795;47.986;11.868;2024-01-06T00:47:50;9.20;79.00
15394;DHT22;7795;47.986;11.868;2024-01-06T00:50:17;9.20;79.10
15394;DHT22;7795;47.986;11.868;2024-01-06T00:52:44;9.20;79.20
15394;DHT22;7795;47.986;11.868;2024-01-06T00:55:11;9.20;79.10
15394;DHT22;7795;47.986;11.868;2024-01-06T00:57:36;9.20;79.10
15394;DHT22;7795;47.986;11.868;2024-01-06T01:00:03;9.20;79.10
15394;DHT22;7795;47.986;11.868;2024-01-06T01:02:29;9.20;79.10
15394;DHT22;7795;47.986;11.868;2024-01-06T01:04:55;9.20;79.10
15394;DHT22;7795;47.986;11.868;2024-01-06T01:07:22;9.20;79.20
15394;DHT22;7795;47.986;11.868;2024-01-06T01:09:48;9.20;79.20
15394;DHT22;7795;47.986;11.868;2024-01-06T01:12:13;9.20;79.20
15394;DHT22;7795;47.986;11.868;2024-01-06T01:14:39;9.20;79.20
15394;DHT22;7795;47.986;11.868;2024-01-06T01:17:05;9.20;79.20
15394;DHT22;7795;47.986;11.868;2024-01-06T01:19:31;9.20;80.00
15394;DHT22;7795;47.986;11.868;2024-01-06T01:21:56;9.20;79.20
15394;DHT22;7795;47.986;11.868;2024-01-06T01:24:24;9.20;79.20
15394;DHT22;7795;47.986;11.868;2024-01-06T01:26:49;9.20;79.10
15394;DHT22;7795;47.986;11.868;2024-01-06T01:29:15;9.20;79.10
15394;DHT22;7795;47.986;11.868;2024-01-06T01:31:41;9.20;79.10
15394;DHT22;7795;47.986;11.868;2024-01-06T01:34:07;9.20;79.10
15394;DHT22;7795;47.986;11.868;2024-01-06T01:36:33;9.20;79.20
15394;DHT22;7795;47.986;11.868;2024-01-06T01:38:58;9.20;79.20
15394;DHT22;7795;47.986;11.868;2024-01-06T01:41:26;9.20;79.20
15394;DHT22;7795;47.986;11.868;2024-01-06T01:43:51;9.20;79.20
15394;DHT22;7795;47.986;11.868;2024-01-06T01:46:24;9.20;79.10
15394;DHT22;7795;47.986;11.868;2024-01-06T01:48:51;9.20;79.10
15394;DHT22;7795;47.986;11.868;2024-01-06T01:51:18;9.20;79.10
15394;DHT22;7795;47.986;11.868;2024-01-06T01:53:45;9.20;79.20
15394;DHT22;7795;47.986;11.868;2024-01-06T01:56:11;9.20;79.20
15394;DHT22;7795;47.986;11.868;2024-01-06T01:58:38;9.20;79.20
15394;DHT22;7795;47.986;11.868;2024-01-06T02:01:04;9.20;79.20
15394;DHT22;7795;47.986;11.868;2024-01-06T02:03:30;9.20;79.10
15394;DHT22;7795;47.986;11.868;2024-01-06T02:05:56;9.20;79.10
15394;DHT22;7795;47.986;11.868;2024-01-06T02:08:23;9.20;79.10
15394;DHT22;7795;47.986;11.868;2024-01-06T02:10:49;9.20;79.10
15394;DHT22;7795;47.986;11.868;2024-01-06T02:13:14;9.20;79.10
15394;DHT22;7795;47.986;11.868;2024-01-06T02:15:42;9.20;79.20
15394;DHT22;7795;47.986;11.868;2024-01-06T02:18:07;9.20;79.10
15394;DHT22;7795;47.986;11.868;2024-01-06T02:20:33;9.10;78.90
15394;DHT22;7795;47.986;11.868;2024-01-06T02:23:00;9.20;78.90
15394;DHT22;7795;47.986;11.868;2024-01-06T02:25:27;9.10;78.70
15394;DHT22;7795;47.986;11.868;2024-01-06T02:27:53;9.10;78.50
15394;DHT22;7795;47.986;11.868;2024-01-06T02:30:18;9.10;78.30
15394;DHT22;7795;47.986;11.868;2024-01-06T02:32:44;9.00;78.00
15394;DHT22;7795;47.986;11.868;2024-01-06T02:35:10;9.00;78.00
15394;DHT22;7795;47.986;11.868;2024-01-06T02:37:35;9.00;78.10
15394;DHT22;7795;47.986;11.868;2024-01-06T02:40:03;9.00;78.10
15394;DHT22;7795;47.986;11.868;2024-01-06T02:42:29;8.90;77.90
15394;DHT22;7795;47.986;11.868;2024-01-06T02:44:55;8.90;77.90
15394;DHT22;7795;47.986;11.868;2024-01-06T02:47:21;8.90;77.80
15394;DHT22;7795;47.986;11.868;2024-01-06T02:49:46;8.90;77.80
15394;DHT22;7795;47.986;11.868;2024-01-06T02:52:12;8.80;77.80
15394;DHT22;7795;47.986;11.868;2024-01-06T02:54:38;8.80;77.80
15394;DHT22;7795;47.986;11.868;2024-01-06T02:57:05;8.80;77.90
15394;DHT22;7795;47.986;11.868;2024-01-06T02:59:31;8.80;78.70
15394;DHT22;7795;47.986;11.868;2024-01-06T03:01:58;8.80;77.90
15394;DHT22;7795;47.986;11.868;2024-01-06T03:04:24;8.80;77.90
15394;DHT22;7795;47.986;11.868;2024-01-06T03:06:49;8.80;78.50
15394;DHT22;7795;47.986;11.868;2024-01-06T03:09:19;8.70;77.70
15394;DHT22;7795;47.986;11.868;2024-01-06T03:11:45;8.70;77.80
15394;DHT22;7795;47.986;11.868;2024-01-06T03:14:12;8.70;77.70
15394;DHT22;7795;47.986;11.868;2024-01-06T03:16:38;8.70;77.70
15394;DHT22;7795;47.986;11.868;2024-01-06T03:19:03;8.70;77.80
15394;DHT22;7795;47.986;11.868;2024-01-06T03:21:29;8.70;77.80
15394;DHT22;7795;47.986;11.868;2024-01-06T03:23:55;8.70;77.80
15394;DHT22;7795;47.986;11.868;2024-01-06T03:26:21;8.70;77.80
15394;DHT22;7795;47.986;11.868;2024-01-06T03:28:48;8.70;77.80
15394;DHT22;7795;47.986;11.868;2024-01-06T03:31:16;8.60;77.80
15394;DHT22;7795;47.986;11.868;2024-01-06T03:33:43;8.60;77.90
15394;DHT22;7795;47.986;11.868;2024-01-06T03:36:12;8.60;77.80
15394;DHT22;7795;47.986;11.868;2024-01-06T03:38:37;8.60;77.80
15394;DHT22;7795;47.986;11.868;2024-01-06T03:41:03;8.60;77.70
15394;DHT22;7795;47.986;11.868;2024-01-06T03:43:29;8.60;77.70
15394;DHT22;7795;47.986;11.868;2024-01-06T03:45:55;8.60;77.70
15394;DHT22;7795;47.986;11.868;2024-01-06T03:48:23;8.60;77.70
15394;DHT22;7795;47.986;11.868;2024-01-06T03:50:49;8.60;77.70
15394;DHT22;7795;47.986;11.868;2024-01-06T03:53:15;8.60;77.70
15394;DHT22;7795;47.986;11.868;2024-01-06T03:55:40;8.50;77.60
15394;DHT22;7795;47.986;11.868;2024-01-06T03:58:06;8.50;77.60
15394;DHT22;7795;47.986;11.868;2024-01-06T04:00:32;8.50;77.60
15394;DHT22;7795;47.986;11.868;2024-01-06T04:02:58;8.50;77.60
15394;DHT22;7795;47.986;11.868;2024-01-06T04:05:25;8.50;77.80
15394;DHT22;7795;47.986;11.868;2024-01-06T04:07:50;8.50;77.80
15394;DHT22;7795;47.986;11.868;2024-01-06T04:10:16;8.50;77.90
15394;DHT22;7795;47.986;11.868;2024-01-06T04:12:42;8.50;77.90
15394;DHT22;7795;47.986;11.868;2024-01-06T04:15:08;8.40;77.90
15394;DHT22;7795;47.986;11.868;2024-01-06T04:17:34;8.40;77.90
15394;DHT22;7795;47.986;11.868;2024-01-06T04:20:00;8.40;77.90
15394;DHT22;7795;47.986;11.868;2024-01-06T04:22:27;8.40;77.90
15394;DHT22;7795;47.986;11.868;2024-01-06T04:24:53;8.40;78.00
15394;DHT22;7795;47.986;11.868;2024-01-06T04:27:18;8.40;78.00
15394;DHT22;7795;47.986;11.868;2024-01-06T04:29:44;8.40;78.10
15394;DHT22;7795;47.986;11.868;2024-01-06T04:32:10;8.40;78.10
15394;DHT22;7795;47.986;11.868;2024-01-06T04:34:35;8.40;78.10
15394;DHT22;7795;47.986;11.868;2024-01-06T04:37:01;8.40;78.10
15394;DHT22;7795;47.986;11.868;2024-01-06T04:39:28;8.40;78.10
15394;DHT22;7795;47.986;11.868;2024-01-06T04:41:54;8.40;78.00
15394;DHT22;7795;47.986;11.868;2024-01-06T04:44:20;8.30;77.90
15394;DHT22;7795;47.986;11.868;2024-01-06T04:46:46;8.30;78.00
15394;DHT22;7795;47.986;11.868;2024-01-06T04:49:12;8.30;78.00
15394;DHT22;7795;47.986;11.868;2024-01-06T04:51:38;8.30;78.10
15394;DHT22;7795;47.986;11.868;2024-01-06T04:54:04;8.30;78.10
15394;DHT22;7795;47.986;11.868;2024-01-06T04:56:31;8.30;78.10
15394;DHT22;7795;47.986;11.868;2024-01-06T04:58:57;8.30;78.00
15394;DHT22;7795;47.986;11.868;2024-01-06T05:01:23;8.30;78.00
15394;DHT22;7795;47.986;11.868;2024-01-06T05:03:49;8.30;77.90
15394;DHT22;7795;47.986;11.868;2024-01-06T05:06:15;8.30;78.00
15394;DHT22;7795;47.986;11.868;2024-01-06T05:08:41;8.30;77.90
15394;DHT22;7795;47.986;11.868;2024-01-06T05:11:10;8.30;77.90
15394;DHT22;7795;47.986;11.868;2024-01-06T05:13:38;8.30;77.80
15394;DHT22;7795;47.986;11.868;2024-01-06T05:16:04;8.30;77.80
15394;DHT22;7795;47.986;11.868;2024-01-06T05:18:30;8.20;77.80
15394;DHT22;7795;47.986;11.868;2024-01-06T05:20:56;8.20;77.70
15394;DHT22;7795;47.986;11.868;2024-01-06T05:23:22;8.20;77.60
15394;DHT22;7795;47.986;11.868;2024-01-06T05:25:48;8.20;77.60
15394;DHT22;7795;47.986;11.868;2024-01-06T05:28:14;8.20;77.60
15394;DHT22;7795;47.986;11.868;2024-01-06T05:30:41;8.20;77.60
15394;DHT22;7795;47.986;11.868;2024-01-06T05:33:09;8.20;77.50
15394;DHT22;7795;47.986;11.868;2024-01-06T05:35:35;8.10;77.40
15394;DHT22;7795;47.986;11.868;2024-01-06T05:38:01;8.10;77.40
15394;DHT22;7795;47.986;11.868;2024-01-06T05:40:27;8.10;77.40
15394;DHT22;7795;47.986;11.868;2024-01-06T05:42:53;8.00;77.40
15394;DHT22;7795;47.986;11.868;2024-01-06T05:45:21;8.00;77.40
15394;DHT22;7795;47.986;11.868;2024-01-06T05:47:48;7.90;77.30
15394;DHT22;7795;47.986;11.868;2024-01-06T05:50:15;7.90;77.30
15394;DHT22;7795;47.986;11.868;2024-01-06T05:52:41;7.90;77.40
15394;DHT22;7795;47.986;11.868;2024-01-06T05:55:08;7.80;77.40
15394;DHT22;7795;47.986;11.868;2024-01-06T05:57:34;7.80;77.60
15394;DHT22;7795;47.986;11.868;2024-01-06T06:00:00;7.80;77.60
15394;DHT22;7795;47.986;11.868;2024-01-06T06:02:26;7.80;77.60
15394;DHT22;7795;47.986;11.868;2024-01-06T06:04:53;7.80;78.00
15394;DHT22;7795;47.986;11.868;2024-01-06T06:07:19;7.80;77.60
15394;DHT22;7795;47.986;11.868;2024-01-06T06:09:44;7.80;77.60
15394;DHT22;7795;47.986;11.868;2024-01-06T06:12:12;7.70;77.60
15394;DHT22;7795;47.986;11.868;2024-01-06T06:14:38;7.70;77.60
15394;DHT22;7795;47.986;11.868;2024-01-06T06:17:04;7.70;77.60
15394;DHT22;7795;47.986;11.868;2024-01-06T06:19:30;7.70;77.60
15394;DHT22;7795;47.986;11.868;2024-01-06T06:21:58;7.70;77.60
15394;DHT22;7795;47.986;11.868;2024-01-06T06:24:23;7.70;77.60
15394;DHT22;7795;47.986;11.868;2024-01-06T06:26:49;7.70;77.60
15394;DHT22;7795;47.986;11.868;2024-01-06T06:29:15;7.60;77.70
15394;DHT22;7795;47.986;11.868;2024-01-06T06:31:41;7.70;77.80
15394;DHT22;7795;47.986;11.868;2024-01-06T06:34:08;7.60;77.70
15394;DHT22;7795;47.986;11.868;2024-01-06T06:36:35;7.60;77.70
15394;DHT22;7795;47.986;11.868;2024-01-06T06:39:02;7.60;77.70
15394;DHT22;7795;47.986;11.868;2024-01-06T06:41:29;7.60;77.70
15394;DHT22;7795;47.986;11.868;2024-01-06T06:43:55;7.60;77.60
15394;DHT22;7795;47.986;11.868;2024-01-06T06:46:21;7.60;77.50
15394;DHT22;7795;47.986;11.868;2024-01-06T06:48:47;7.60;77.50
15394;DHT22;7795;47.986;11.868;2024-01-06T06:51:12;7.50;77.50
15394;DHT22;7795;47.986;11.868;2024-01-06T06:53:38;7.50;77.60
15394;DHT22;7795;47.986;11.868;2024-01-06T06:56:05;7.50;77.60
15394;DHT22;7795;47.986;11.868;2024-01-06T06:58:32;7.50;77.70
15394;DHT22;7795;47.986;11.868;2024-01-06T07:00:58;7.40;77.60
15394;DHT22;7795;47.986;11.868;2024-01-06T07:03:24;7.40;77.60
15394;DHT22;7795;47.986;11.868;2024-01-06T07:05:50;7.40;77.60
15394;DHT22;7795;47.986;11.868;2024-01-06T07:08:16;7.40;77.70
15394;DHT22;7795;47.986;11.868;2024-01-06T07:10:41;7.40;77.80
15394;DHT22;7795;47.986;11.868;2024-01-06T07:13:08;7.40;77.90
15394;DHT22;7795;47.986;11.868;2024-01-06T07:15:34;7.40;78.00
15394;DHT22;7795;47.986;11.868;2024-01-06T07:18:00;7.40;78.10
15394;DHT22;7795;47.986;11.868;2024-01-06T07:20:26;7.40;78.20
15394;DHT22;7795;47.986;11.868;2024-01-06T07:22:51;7.40;78.20
15394;DHT22;7795;47.986;11.868;2024-01-06T07:25:17;7.40;78.20
15394;DHT22;7795;47.986;11.868;2024-01-06T07:27:43;7.40;78.10
15394;DHT22;7795;47.986;11.868;2024-01-06T07:30:11;7.40;78.20
15394;DHT22;7795;47.986;11.868;2024-01-06T07:32:37;7.40;78.20
15394;DHT22;7795;47.986;11.868;2024-01-06T07:35:03;7.40;78.20
15394;DHT22;7795;47.986;11.868;2024-01-06T07:37:29;7.40;78.20
15394;DHT22;7795;47.986;11.868;2024-01-06T07:39:55;7.40;78.20
15394;DHT22;7795;47.986;11.868;2024-01-06T07:42:20;7.40;78.20
15394;DHT22;7795;47.986;11.868;2024-01-06T07:44:47;7.40;78.20
15394;DHT22;7795;47.986;11.868;2024-01-06T07:47:14;7.40;78.10
15394;DHT22;7795;47.986;11.868;2024-01-06T07:49:40;7.40;78.10
15394;DHT22;7795;47.986;11.868;2024-01-06T07:52:06;7.30;78.00
15394;DHT22;7795;47.986;11.868;2024-01-06T07:54:31;7.30;78.00
15394;DHT22;7795;47.986;11.868;2024-01-06T07:56:57;7.30;78.00
15394;DHT22;7795;47.986;11.868;2024-01-06T07:59:23;7.30;78.20
15394;DHT22;7795;47.986;11.868;2024-01-06T08:01:49;7.30;78.30
15394;DHT22;7795;47.986;11.868;2024-01-06T08:04:16;7.30;78.40
15394;DHT22;7795;47.986;11.868;2024-01-06T08:06:42;7.30;78.40
15394;DHT22;7795;47.986;11.868;2024-01-06T08:09:07;7.30;78.30
15394;DHT22;7795;47.986;11.868;2024-01-06T08:11:33;7.30;78.30
15394;DHT22;7795;47.986;11.868;2024-01-06T08:13:59;7.30;78.20
15394;DHT22;7795;47.986;11.868;2024-01-06T08:16:25;7.30;78.10
15394;DHT22;7795;47.986;11.868;2024-01-06T08:18:51;7.20;78.10
15394;DHT22;7795;47.986;11.868;2024-01-06T08:21:18;7.20;78.20
15394;DHT22;7795;47.986;11.868;2024-01-06T08:23:44;7.20;78.20
15394;DHT22;7795;47.986;11.868;2024-01-06T08:26:10;7.20;78.20
15394;DHT22;7795;47.986;11.868;2024-01-06T08:28:36;7.20;78.20
15394;DHT22;7795;47.986;11.868;2024-01-06T08:31:01;7.10;78.20
15394;DHT22;7795;47.986;11.868;2024-01-06T08:33:27;7.10;78.30
15394;DHT22;7795;47.986;11.868;2024-01-06T08:35:53;7.10;78.40
15394;DHT22;7795;47.986;11.868;2024-01-06T08:38:20;7.10;78.50
15394;DHT22;7795;47.986;11.868;2024-01-06T08:40:48;7.00;78.60
15394;DHT22;7795;47.986;11.868;2024-01-06T08:43:15;7.00;78.60
15394;DHT22;7795;47.986;11.868;2024-01-06T08:45:41;7.00;78.70
15394;DHT22;7795;47.986;11.868;2024-01-06T08:48:07;7.00;78.90
15394;DHT22;7795;47.986;11.868;2024-01-06T08:50:33;7.00;78.90
15394;DHT22;7795;47.986;11.868;2024-01-06T08:52:59;7.00;78.90
15394;DHT22;7795;47.986;11.868;2024-01-06T08:55:26;7.00;78.90
15394;DHT22;7795;47.986;11.868;2024-01-06T08:57:51;7.00;78.90
15394;DHT22;7795;47.986;11.868;2024-01-06T09:00:18;7.00;78.90
15394;DHT22;7795;47.986;11.868;2024-01-06T09:02:43;7.00;79.00
15394;DHT22;7795;47.986;11.868;2024-01-06T09:05:09;7.00;79.00
15394;DHT22;7795;47.986;11.868;2024-01-06T09:07:35;7.00;79.00
15394;DHT22;7795;47.986;11.868;2024-01-06T09:10:01;7.00;79.10
15394;DHT22;7795;47.986;11.868;2024-01-06T09:12:28;7.00;79.20
15394;DHT22;7795;47.986;11.868;2024-01-06T09:14:55;7.00;79.20
15394;DHT22;7795;47.986;11.868;2024-01-06T09:17:21;7.00;79.20
15394;DHT22;7795;47.986;11.868;2024-01-06T09:19:48;7.10;79.20
15394;DHT22;7795;47.986;11.868;2024-01-06T09:22:14;7.10;79.30
15394;DHT22;7795;47.986;11.868;2024-01-06T09:24:40;7.10;79.40
15394;DHT22;7795;47.986;11.868;2024-01-06T09:27:06;7.10;79.40
15394;DHT22;7795;47.986;11.868;2024-01-06T09:29:33;7.10;79.40
15394;DHT22;7795;47.986;11.868;2024-01-06T09:32:00;7.20;79.70
15394;DHT22;7795;47.986;11.868;2024-01-06T09:34:25;7.20;80.40
15394;DHT22;7795;47.986;11.868;2024-01-06T09:36:51;7.30;79.60
15394;DHT22;7795;47.986;11.868;2024-01-06T09:39:17;7.30;79.60
15394;DHT22;7795;47.986;11.868;2024-01-06T09:41:43;7.30;79.60
15394;DHT22;7795;47.986;11.868;2024-01-06T09:44:09;7.30;79.60
15394;DHT22;7795;47.986;11.868;2024-01-06T09:46:37;7.40;79.70
15394;DHT22;7795;47.986;11.868;2024-01-06T09:49:04;7.40;79.70
15394;DHT22;7795;47.986;11.868;2024-01-06T09:51:29;7.40;79.70
15394;DHT22;7795;47.986;11.868;2024-01-06T09:53:57;7.40;79.70
15394;DHT22;7795;47.986;11.868;2024-01-06T09:56:24;7.50;79.80
15394;DHT22;7795;47.986;11.868;2024-01-06T09:58:50;7.50;79.70
15394;DHT22;7795;47.986;11.868;2024-01-06T10:01:17;7.50;79.60
15394;DHT22;7795;47.986;11.868;2024-01-06T10:03:45;7.50;79.60
15394;DHT22;7795;47.986;11.868;2024-01-06T10:06:13;7.50;79.60
15394;DHT22;7795;47.986;11.868;2024-01-06T10:08:41;7.50;79.60
15394;DHT22;7795;47.986;11.868;2024-01-06T10:11:07;7.50;79.40
15394;DHT22;7795;47.986;11.868;2024-01-06T10:13:35;7.50;79.40
15394;DHT22;7795;47.986;11.868;2024-01-06T10:16:01;7.50;79.40
15394;DHT22;7795;47.986;11.868;2024-01-06T10:18:27;7.50;79.50
15394;DHT22;7795;47.986;11.868;2024-01-06T10:20:56;7.50;79.60
15394;DHT22;7795;47.986;11.868;2024-01-06T10:23:23;7.50;79.70
15394;DHT22;7795;47.986;11.868;2024-01-06T10:25:52;7.50;79.70
15394;DHT22;7795;47.986;11.868;2024-01-06T10:28:18;7.50;79.80
15394;DHT22;7795;47.986;11.868;2024-01-06T10:30:43;7.50;79.70
15394;DHT22;7795;47.986;11.868;2024-01-06T10:33:09;7.60;79.80
15394;DHT22;7795;47.986;11.868;2024-01-06T10:35:36;7.60;79.80
15394;DHT22;7795;47.986;11.868;2024-01-06T10:38:03;7.60;79.80
15394;DHT22;7795;47.986;11.868;2024-01-06T10:40:29;7.60;79.70
15394;DHT22;7795;47.986;11.868;2024-01-06T10:42:55;7.60;79.50
15394;DHT22;7795;47.986;11.868;2024-01-06T10:45:23;7.60;79.40
15394;DHT22;7795;47.986;11.868;2024-01-06T10:47:49;7.60;79.30
15394;DHT22;7795;47.986;11.868;2024-01-06T10:50:17;7.60;79.30
15394;DHT22;7795;47.986;11.868;2024-01-06T10:52:43;7.60;79.30
15394;DHT22;7795;47.986;11.868;2024-01-06T10:55:11;7.60;79.30
15394;DHT22;7795;47.986;11.868;2024-01-06T10:57:37;7.60;79.20
15394;DHT22;7795;47.986;11.868;2024-01-06T11:00:04;7.60;79.20
15394;DHT22;7795;47.986;11.868;2024-01-06T11:02:31;7.60;79.20
15394;DHT22;7795;47.986;11.868;2024-01-06T11:04:57;7.60;79.20
15394;DHT22;7795;47.986;11.868;2024-01-06T11:07:25;7.60;79.20
15394;DHT22;7795;47.986;11.868;2024-01-06T11:09:55;7.60;79.10
15394;DHT22;7795;47.986;11.868;2024-01-06T11:12:23;7.70;79.20
15394;DHT22;7795;47.986;11.868;2024-01-06T11:14:49;7.70;79.00
15394;DHT22;7795;47.986;11.868;2024-01-06T11:17:49;7.70;78.90
15394;DHT22;7795;47.986;11.868;2024-01-06T11:20:19;7.70;78.90
15394;DHT22;7795;47.986;11.868;2024-01-06T11:22:45;7.70;78.70
15394;DHT22;7795;47.986;11.868;2024-01-06T11:25:14;7.70;78.70
15394;DHT22;7795;47.986;11.868;2024-01-06T11:27:42;7.70;78.70
15394;DHT22;7795;47.986;11.868;2024-01-06T11:30:19;7.70;78.50
15394;DHT22;7795;47.986;11.868;2024-01-06T11:32:45;7.70;78.50
15394;DHT22;7795;47.986;11.868;2024-01-06T11:35:14;7.70;78.50
15394;DHT22;7795;47.986;11.868;2024-01-06T11:37:56;7.60;78.40
15394;DHT22;7795;47.986;11.868;2024-01-06T11:40:30;7.60;78.30
15394;DHT22;7795;47.986;11.868;2024-01-06T11:43:00;7.60;78.30
15394;DHT22;7795;47.986;11.868;2024-01-06T11:45:26;7.60;78.30
15394;DHT22;7795;47.986;11.868;2024-01-06T11:47:55;7.60;78.20
15394;DHT22;7795;47.986;11.868;2024-01-06T11:50:21;7.60;78.20
15394;DHT22;7795;47.986;11.868;2024-01-06T11:52:48;7.50;78.20
15394;DHT22;7795;47.986;11.868;2024-01-06T11:55:14;7.50;78.20
15394;DHT22;7795;47.986;11.868;2024-01-06T11:57:40;7.50;78.20
15394;DHT22;7795;47.986;11.868;2024-01-06T12:00:08;7.50;78.20
15394;DHT22;7795;47.986;11.868;2024-01-06T12:02:34;7.50;78.30
15394;DHT22;7795;47.986;11.868;2024-01-06T12:05:00;7.40;78.20
15394;DHT22;7795;47.986;11.868;2024-01-06T12:07:26;7.40;78.20
15394;DHT22;7795;47.986;11.868;2024-01-06T12:10:01;7.40;78.30
15394;DHT22;7795;47.986;11.868;2024-01-06T12:12:27;7.40;78.40
15394;DHT22;7795;47.986;11.868;2024-01-06T12:14:53;7.40;78.40
15394;DHT22;7795;47.986;11.868;2024-01-06T12:17:21;7.30;78.40
15394;DHT22;7795;47.986;11.868;2024-01-06T12:19:47;7.30;78.60
15394;DHT22;7795;47.986;11.868;2024-01-06T12:22:14;7.30;78.60
15394;DHT22;7795;47.986;11.868;2024-01-06T12:24:41;7.30;78.60
15394;DHT22;7795;47.986;11.868;2024-01-06T12:27:07;7.30;78.60
15394;DHT22;7795;47.986;11.868;2024-01-06T12:29:38;7.30;78.60
15394;DHT22;7795;47.986;11.868;2024-01-06T12:32:05;7.30;79.10
15394;DHT22;7795;47.986;11.868;2024-01-06T12:34:33;7.30;78.70
15394;DHT22;7795;47.986;11.868;2024-01-06T12:37:00;7.30;78.70
15394;DHT22;7795;47.986;11.868;2024-01-06T12:39:27;7.30;78.70
15394;DHT22;7795;47.986;11.868;2024-01-06T12:41:54;7.30;78.70
15394;DHT22;7795;47.986;11.868;2024-01-06T12:44:20;7.30;78.70
15394;DHT22;7795;47.986;11.868;2024-01-06T12:46:46;7.40;78.70
15394;DHT22;7795;47.986;11.868;2024-01-06T12:49:12;7.40;78.70
15394;DHT22;7795;47.986;11.868;2024-01-06T12:51:39;7.40;78.60
15394;DHT22;7795;47.986;11.868;2024-01-06T12:54:05;7.40;78.40
15394;DHT22;7795;47.986;11.868;2024-01-06T12:56:31;7.40;78.30
15394;DHT22;7795;47.986;11.868;2024-01-06T12:58:57;7.30;78.20
15394;DHT22;7795;47.986;11.868;2024-01-06T13:01:23;7.30;78.20
15394;DHT22;7795;47.986;11.868;2024-01-06T13:03:49;7.30;78.20
15394;DHT22;7795;47.986;11.868;2024-01-06T13:06:14;7.30;78.20
15394;DHT22;7795;47.986;11.868;2024-01-06T13:08:43;7.30;78.20
15394;DHT22;7795;47.986;11.868;2024-01-06T13:11:09;7.30;78.30
15394;DHT22;7795;47.986;11.868;2024-01-06T13:13:35;7.30;78.30
15394;DHT22;7795;47.986;11.868;2024-01-06T13:16:00;7.30;78.30
15394;DHT22;7795;47.986;11.868;2024-01-06T13:18:30;7.30;78.30
15394;DHT22;7795;47.986;11.868;2024-01-06T13:20:56;7.30;78.20
15394;DHT22;7795;47.986;11.868;2024-01-06T13:23:22;7.30;78.20
15394;DHT22;7795;47.986;11.868;2024-01-06T13:25:49;7.20;78.10
15394;DHT22;7795;47.986;11.868;2024-01-06T13:28:15;7.20;77.90
15394;DHT22;7795;47.986;11.868;2024-01-06T13:30:41;7.20;77.80
15394;DHT22;7795;47.986;11.868;2024-01-06T13:33:07;7.20;77.90
15394;DHT22;7795;47.986;11.868;2024-01-06T13:35:33;7.20;77.80
15394;DHT22;7795;47.986;11.868;2024-01-06T13:37:59;7.10;77.90
15394;DHT22;7795;47.986;11.868;2024-01-06T13:40:25;7.10;78.00
15394;DHT22;7795;47.986;11.868;2024-01-06T13:42:52;7.10;78.00
15394;DHT22;7795;47.986;11.868;2024-01-06T13:45:18;7.10;78.20
15394;DHT22;7795;47.986;11.868;2024-01-06T13:47:44;7.10;78.30
15394;DHT22;7795;47.986;11.868;2024-01-06T13:50:11;7.10;78.30
15394;DHT22;7795;47.986;11.868;2024-01-06T13:52:37;7.10;78.30
15394;DHT22;7795;47.986;11.868;2024-01-06T13:55:03;7.10;78.30
15394;DHT22;7795;47.986;11.868;2024-01-06T13:57:29;7.10;78.20
15394;DHT22;7795;47.986;11.868;2024-01-06T13:59:56;7.10;78.20
15394;DHT22;7795;47.986;11.868;2024-01-06T14:02:22;7.10;78.10
15394;DHT22;7795;47.986;11.868;2024-01-06T14:04:48;7.00;78.00
15394;DHT22;7795;47.986;11.868;2024-01-06T14:07:14;7.00;78.00
15394;DHT22;7795;47.986;11.868;2024-01-06T14:09:40;7.00;78.00
15394;DHT22;7795;47.986;11.868;2024-01-06T14:12:06;7.00;77.90
15394;DHT22;7795;47.986;11.868;2024-01-06T14:14:32;7.00;77.90
15394;DHT22;7795;47.986;11.868;2024-01-06T14:16:59;7.00;77.90
15394;DHT22;7795;47.986;11.868;2024-01-06T14:19:25;7.00;77.70
15394;DHT22;7795;47.986;11.868;2024-01-06T14:21:50;6.90;77.70
15394;DHT22;7795;47.986;11.868;2024-01-06T14:24:16;6.90;77.70
15394;DHT22;7795;47.986;11.868;2024-01-06T14:26:49;6.90;77.70
15394;DHT22;7795;47.986;11.868;2024-01-06T14:29:14;6.90;77.70
15394;DHT22;7795;47.986;11.868;2024-01-06T14:31:42;6.80;77.70
15394;DHT22;7795;47.986;11.868;2024-01-06T14:34:09;6.80;77.80
15394;DHT22;7795;47.986;11.868;2024-01-06T14:36:35;6.80;77.90
15394;DHT22;7795;47.986;11.868;2024-01-06T14:39:01;6.80;77.90
15394;DHT22;7795;47.986;11.868;2024-01-06T14:41:27;6.70;77.90
15394;DHT22;7795;47.986;11.868;2024-01-06T14:43:52;6.70;78.00
15394;DHT22;7795;47.986;11.868;2024-01-06T14:46:18;6.70;77.90
15394;DHT22;7795;47.986;11.868;2024-01-06T14:48:44;6.70;78.00
15394;DHT22;7795;47.986;11.868;2024-01-06T14:51:11;6.70;78.00
15394;DHT22;7795;47.986;11.868;2024-01-06T14:53:37;6.70;78.00
15394;DHT22;7795;47.986;11.868;2024-01-06T14:56:03;6.70;78.00
15394;DHT22;7795;47.986;11.868;2024-01-06T14:58:29;6.60;78.00
15394;DHT22;7795;47.986;11.868;2024-01-06T15:00:55;6.60;78.00
15394;DHT22;7795;47.986;11.868;2024-01-06T15:03:21;6.60;78.00
15394;DHT22;7795;47.986;11.868;2024-01-06T15:05:49;6.60;78.70
15394;DHT22;7795;47.986;11.868;2024-01-06T15:08:16;6.60;78.00
15394;DHT22;7795;47.986;11.868;2024-01-06T15:10:42;6.60;78.00
15394;DHT22;7795;47.986;11.868;2024-01-06T15:13:07;6.60;78.00
15394;DHT22;7795;47.986;11.868;2024-01-06T15:15:33;6.60;78.00
15394;DHT22;7795;47.986;11.868;2024-01-06T15:17:59;6.60;78.00
15394;DHT22;7795;47.986;11.868;2024-01-06T15:20:25;6.50;78.00
15394;DHT22;7795;47.986;11.868;2024-01-06T15:22:51;6.50;78.00
15394;DHT22;7795;47.986;11.868;2024-01-06T15:25:18;6.50;78.00
15394;DHT22;7795;47.986;11.868;2024-01-06T15:27:44;6.50;78.00
15394;DHT22;7795;47.986;11.868;2024-01-06T15:30:10;6.50;78.00
15394;DHT22;7795;47.986;11.868;2024-01-06T15:32:36;6.50;78.00
15394;DHT22;7795;47.986;11.868;2024-01-06T15:35:02;6.50;78.00
15394;DHT22;7795;47.986;11.868;2024-01-06T15:37:29;6.40;78.00
15394;DHT22;7795;47.986;11.868;2024-01-06T15:39:56;6.40;78.10